sensor_id;sensor_type;location;lat;lon;timestamp;P1;durP1;ratioP1;P2;durP2;ratioP2
49910;SDS011;35803;53.096;5.844;2023-04-30T00:01:40;3.70;;;2.10;;
49910;SDS011;35803;53.096;5.844;2023-04-30T00:04:05;5.93;;;2.45;;
49910;SDS011;35803;53.096;5.844;2023-04-30T00:06:31;6.00;;;2.40;;
49910;SDS011;35803;53.096;5.844;2023-04-30T00:08:56;2.95;;;2.00;;
49910;SDS011;35803;53.096;5.844;2023-04-30T00:11:22;6.93;;;2.28;;
49910;SDS011;35803;53.096;5.844;2023-04-30T00:13:49;3.53;;;2.50;;
49910;SDS011;35803;53.096;5.844;2023-04-30T00:16:16;5.18;;;2.47;;
49910;SDS011;35803;53.096;5.844;2023-04-30T00:18:42;4.05;;;2.35;;
49910;SDS011;35803;53.096;5.844;2023-04-30T00:21:07;10.48;;;2.60;;
49910;SDS011;35803;53.096;5.844;2023-04-30T00:23:33;5.68;;;2.80;;
49910;SDS011;35803;53.096;5.844;2023-04-30T00:25:59;5.00;;;2.47;;
49910;SDS011;35803;53.096;5.844;2023-04-30T00:28:24;5.00;;;2.72;;
49910;SDS011;35803;53.096;5.844;2023-04-30T00:30:50;4.25;;;2.50;;
49910;SDS011;35803;53.096;5.844;2023-04-30T00:33:15;5.28;;;2.88;;
49910;SDS011;35803;53.096;5.844;2023-04-30T00:35:41;3.90;;;2.63;;
49910;SDS011;35803;53.096;5.844;2023-04-30T00:38:06;5.40;;;2.72;;
49910;SDS011;35803;53.096;5.844;2023-04-30T00:40:35;4.53;;;2.78;;
49910;SDS011;35803;53.096;5.844;2023-04-30T00:43:02;4.13;;;2.70;;
49910;SDS011;35803;53.096;5.844;2023-04-30T00:45:27;5.00;;;2.70;;
49910;SDS011;35803;53.096;5.844;2023-04-30T00:47:52;7.88;;;3.08;;
49910;SDS011;35803;53.096;5.844;2023-04-30T00:50:18;4.70;;;2.65;;
49910;SDS011;35803;53.096;5.844;2023-04-30T00:52:44;4.82;;;2.90;;
49910;SDS011;35803;53.096;5.844;2023-04-30T00:55:10;5.70;;;3.08;;
49910;SDS011;35803;53.096;5.844;2023-04-30T00:57:36;6.47;;;3.00;;
49910;SDS011;35803;53.096;5.844;2023-04-30T01:00:02;4.45;;;3.10;;
49910;SDS011;35803;53.096;5.844;2023-04-30T01:02:29;4.70;;;2.90;;
49910;SDS011;35803;53.096;5.844;2023-04-30T01:04:54;5.50;;;2.97;;
49910;SDS011;35803;53.096;5.844;2023-04-30T01:07:20;7.13;;;3.30;;
49910;SDS011;35803;53.096;5.844;2023-04-30T01:09:46;6.57;;;3.33;;
49910;SDS011;35803;53.096;5.844;2023-04-30T01:14:56;7.57;;;3.30;;
49910;SDS011;35803;53.096;5.844;2023-04-30T01:20:19;8.85;;;3.35;;
49910;SDS011;35803;53.096;5.844;2023-04-30T01:25:32;7.43;;;3.00;;
49910;SDS011;35803;53.096;5.844;2023-04-30T01:28:15;4.80;;;3.05;;
49910;SDS011;35803;53.096;5.844;2023-04-30T01:30:44;6.03;;;3.03;;
49910;SDS011;35803;53.096;5.844;2023-04-30T01:33:13;5.75;;;3.60;;
49910;SDS011;35803;53.096;5.844;2023-04-30T01:35:52;6.95;;;3.28;;
49910;SDS011;35803;53.096;5.844;2023-04-30T01:47:00;4.85;;;2.92;;
49910;SDS011;35803;53.096;5.844;2023-04-30T01:49:43;5.78;;;3.08;;
49910;SDS011;35803;53.096;5.844;2023-04-30T01:52:41;5.57;;;3.28;;
49910;SDS011;35803;53.096;5.844;2023-04-30T01:55:12;4.75;;;2.78;;
49910;SDS011;35803;53.096;5.844;2023-04-30T01:57:43;5.30;;;2.67;;
49910;SDS011;35803;53.096;5.844;2023-04-30T02:00:15;4.90;;;3.20;;
49910;SDS011;35803;53.096;5.844;2023-04-30T02:02:44;5.80;;;3.15;;
49910;SDS011;35803;53.096;5.844;2023-04-30T02:05:09;8.55;;;3.00;;
49910;SDS011;35803;53.096;5.844;2023-04-30T02:07:38;4.95;;;3.30;;
49910;SDS011;35803;53.096;5.844;2023-04-30T02:10:05;4.28;;;2.92;;
49910;SDS011;35803;53.096;5.844;2023-04-30T02:12:31;6.38;;;3.28;;
49910;SDS011;35803;53.096;5.844;2023-04-30T02:14:57;8.63;;;3.28;;
49910;SDS011;35803;53.096;5.844;2023-04-30T02:17:22;5.03;;;3.50;;
49910;SDS011;35803;53.096;5.844;2023-04-30T02:19:50;6.88;;;3.10;;
49910;SDS011;35803;53.096;5.844;2023-04-30T02:22:16;5.55;;;3.00;;
49910;SDS011;35803;53.096;5.844;2023-04-30T02:24:41;7.88;;;3.08;;
49910;SDS011;35803;53.096;5.844;2023-04-30T02:27:07;3.97;;;2.83;;
49910;SDS011;35803;53.096;5.844;2023-04-30T02:29:32;4.47;;;3.35;;
49910;SDS011;35803;53.096;5.844;2023-04-30T02:31:58;9.20;;;3.60;;
49910;SDS011;35803;53.096;5.844;2023-04-30T02:34:23;8.25;;;3.58;;
49910;SDS011;35803;53.096;5.844;2023-04-30T02:36:50;7.20;;;3.05;;
49910;SDS011;35803;53.096;5.844;2023-04-30T02:39:15;6.30;;;3.05;;
49910;SDS011;35803;53.096;5.844;2023-04-30T02:41:41;5.25;;;3.08;;
49910;SDS011;35803;53.096;5.844;2023-04-30T02:44:06;6.43;;;3.15;;
49910;SDS011;35803;53.096;5.844;2023-04-30T02:46:32;6.45;;;3.28;;
49910;SDS011;35803;53.096;5.844;2023-04-30T02:48:58;5.68;;;3.00;;
49910;SDS011;35803;53.096;5.844;2023-04-30T02:51:23;7.03;;;3.33;;
49910;SDS011;35803;53.096;5.844;2023-04-30T02:53:49;6.53;;;3.35;;
49910;SDS011;35803;53.096;5.844;2023-04-30T02:56:14;9.10;;;3.38;;
49910;SDS011;35803;53.096;5.844;2023-04-30T02:58:40;5.75;;;3.00;;
49910;SDS011;35803;53.096;5.844;2023-04-30T03:01:06;4.75;;;3.17;;
49910;SDS011;35803;53.096;5.844;2023-04-30T03:03:31;9.52;;;3.65;;
49910;SDS011;35803;53.096;5.844;2023-04-30T03:05:57;6.35;;;3.38;;
49910;SDS011;35803;53.096;5.844;2023-04-30T03:08:24;5.90;;;3.30;;
49910;SDS011;35803;53.096;5.844;2023-04-30T03:10:50;4.18;;;3.13;;
49910;SDS011;35803;53.096;5.844;2023-04-30T03:13:15;7.82;;;3.63;;
49910;SDS011;35803;53.096;5.844;2023-04-30T03:15:41;7.78;;;4.00;;
49910;SDS011;35803;53.096;5.844;2023-04-30T03:18:06;6.68;;;3.58;;
49910;SDS011;35803;53.096;5.844;2023-04-30T03:20:32;7.45;;;3.85;;
49910;SDS011;35803;53.096;5.844;2023-04-30T03:22:57;7.43;;;3.67;;
49910;SDS011;35803;53.096;5.844;2023-04-30T03:25:23;6.60;;;3.50;;
49910;SDS011;35803;53.096;5.844;2023-04-30T03:27:50;7.35;;;3.47;;
49910;SDS011;35803;53.096;5.844;2023-04-30T03:30:16;5.85;;;3.35;;
49910;SDS011;35803;53.096;5.844;2023-04-30T03:32:41;5.18;;;3.33;;
49910;SDS011;35803;53.096;5.844;2023-04-30T03:35:07;10.00;;;3.75;;
49910;SDS011;35803;53.096;5.844;2023-04-30T03:37:33;5.32;;;3.28;;
49910;SDS011;35803;53.096;5.844;2023-04-30T03:39:58;9.75;;;3.72;;
49910;SDS011;35803;53.096;5.844;2023-04-30T03:42:24;7.72;;;4.03;;
49910;SDS011;35803;53.096;5.844;2023-04-30T03:44:49;9.48;;;3.75;;
49910;SDS011;35803;53.096;5.844;2023-04-30T03:47:18;6.25;;;4.05;;
49910;SDS011;35803;53.096;5.844;2023-04-30T03:49:43;5.75;;;3.45;;
49910;SDS011;35803;53.096;5.844;2023-04-30T03:52:09;6.70;;;3.63;;
49910;SDS011;35803;53.096;5.844;2023-04-30T03:54:35;6.18;;;3.55;;
49910;SDS011;35803;53.096;5.844;2023-04-30T03:57:00;7.85;;;4.05;;
49910;SDS011;35803;53.096;5.844;2023-04-30T03:59:30;5.75;;;3.75;;
49910;SDS011;35803;53.096;5.844;2023-04-30T04:01:56;7.82;;;4.07;;
49910;SDS011;35803;53.096;5.844;2023-04-30T04:04:21;9.93;;;4.45;;
49910;SDS011;35803;53.096;5.844;2023-04-30T04:06:47;7.72;;;4.07;;
49910;SDS011;35803;53.096;5.844;2023-04-30T04:09:12;6.95;;;3.63;;
49910;SDS011;35803;53.096;5.844;2023-04-30T04:11:38;8.18;;;3.80;;
49910;SDS011;35803;53.096;5.844;2023-04-30T04:14:03;7.18;;;3.65;;
49910;SDS011;35803;53.096;5.844;2023-04-30T04:16:29;5.75;;;3.60;;
49910;SDS011;35803;53.096;5.844;2023-04-30T04:18:55;4.95;;;3.08;;
49910;SDS011;35803;53.096;5.844;2023-04-30T04:21:20;5.00;;;3.20;;
49910;SDS011;35803;53.096;5.844;2023-04-30T04:23:46;5.22;;;3.38;;
49910;SDS011;35803;53.096;5.844;2023-04-30T04:26:11;6.50;;;3.55;;
49910;SDS011;35803;53.096;5.844;2023-04-30T04:28:37;3.78;;;2.80;;
49910;SDS011;35803;53.096;5.844;2023-04-30T04:31:03;4.15;;;3.15;;
49910;SDS011;35803;53.096;5.844;2023-04-30T04:33:29;4.03;;;2.80;;
49910;SDS011;35803;53.096;5.844;2023-04-30T04:35:55;6.18;;;2.90;;
49910;SDS011;35803;53.096;5.844;2023-04-30T04:38:24;5.20;;;2.90;;
49910;SDS011;35803;53.096;5.844;2023-04-30T04:40:51;8.60;;;3.35;;
49910;SDS011;35803;53.096;5.844;2023-04-30T04:43:17;4.80;;;2.80;;
49910;SDS011;35803;53.096;5.844;2023-04-30T04:45:42;4.75;;;2.80;;
49910;SDS011;35803;53.096;5.844;2023-04-30T04:48:08;7.20;;;2.85;;
49910;SDS011;35803;53.096;5.844;2023-04-30T04:50:34;5.25;;;2.90;;
49910;SDS011;35803;53.096;5.844;2023-04-30T04:53:00;4.45;;;2.72;;
49910;SDS011;35803;53.096;5.844;2023-04-30T04:55:25;4.63;;;2.70;;
49910;SDS011;35803;53.096;5.844;2023-04-30T04:57:51;5.88;;;2.75;;
49910;SDS011;35803;53.096;5.844;2023-04-30T05:00:16;7.07;;;3.00;;
49910;SDS011;35803;53.096;5.844;2023-04-30T05:02:43;7.00;;;3.00;;
49910;SDS011;35803;53.096;5.844;2023-04-30T05:05:08;5.40;;;2.63;;
49910;SDS011;35803;53.096;5.844;2023-04-30T05:07:35;5.05;;;2.80;;
49910;SDS011;35803;53.096;5.844;2023-04-30T05:10:00;4.53;;;3.00;;
49910;SDS011;35803;53.096;5.844;2023-04-30T05:12:26;4.57;;;2.78;;
49910;SDS011;35803;53.096;5.844;2023-04-30T05:14:51;5.05;;;3.00;;
49910;SDS011;35803;53.096;5.844;2023-04-30T05:17:17;6.15;;;2.80;;
49910;SDS011;35803;53.096;5.844;2023-04-30T05:19:43;3.83;;;2.63;;
49910;SDS011;35803;53.096;5.844;2023-04-30T05:22:08;6.07;;;2.88;;
49910;SDS011;35803;53.096;5.844;2023-04-30T05:24:34;5.35;;;2.85;;
49910;SDS011;35803;53.096;5.844;2023-04-30T05:26:59;6.95;;;2.90;;
49910;SDS011;35803;53.096;5.844;2023-04-30T05:29:26;5.88;;;3.42;;
49910;SDS011;35803;53.096;5.844;2023-04-30T05:31:52;6.72;;;3.05;;
49910;SDS011;35803;53.096;5.844;2023-04-30T05:34:18;4.60;;;2.92;;
49910;SDS011;35803;53.096;5.844;2023-04-30T05:36:44;5.88;;;3.25;;
49910;SDS011;35803;53.096;5.844;2023-04-30T05:39:09;5.18;;;3.30;;
49910;SDS011;35803;53.096;5.844;2023-04-30T05:41:35;6.78;;;3.50;;
49910;SDS011;35803;53.096;5.844;2023-04-30T05:44:00;4.90;;;3.42;;
49910;SDS011;35803;53.096;5.844;2023-04-30T05:46:29;5.38;;;3.60;;
49910;SDS011;35803;53.096;5.844;2023-04-30T05:48:54;7.55;;;4.30;;
49910;SDS011;35803;53.096;5.844;2023-04-30T05:51:20;6.07;;;3.40;;
49910;SDS011;35803;53.096;5.844;2023-04-30T05:53:45;7.88;;;3.60;;
49910;SDS011;35803;53.096;5.844;2023-04-30T05:56:11;6.88;;;3.22;;
49910;SDS011;35803;53.096;5.844;2023-04-30T05:58:37;5.80;;;3.00;;
49910;SDS011;35803;53.096;5.844;2023-04-30T06:01:03;5.00;;;3.08;;
49910;SDS011;35803;53.096;5.844;2023-04-30T06:03:29;6.72;;;3.45;;
49910;SDS011;35803;53.096;5.844;2023-04-30T06:05:55;4.32;;;2.80;;
49910;SDS011;35803;53.096;5.844;2023-04-30T06:08:21;6.47;;;3.00;;
49910;SDS011;35803;53.096;5.844;2023-04-30T06:10:46;5.47;;;2.80;;
49910;SDS011;35803;53.096;5.844;2023-04-30T06:13:12;3.22;;;2.58;;
49910;SDS011;35803;53.096;5.844;2023-04-30T06:15:39;4.90;;;2.75;;
49910;SDS011;35803;53.096;5.844;2023-04-30T06:18:05;5.80;;;2.80;;
49910;SDS011;35803;53.096;5.844;2023-04-30T06:20:31;5.57;;;2.45;;
49910;SDS011;35803;53.096;5.844;2023-04-30T06:22:57;3.60;;;2.50;;
49910;SDS011;35803;53.096;5.844;2023-04-30T06:25:24;5.97;;;2.22;;
49910;SDS011;35803;53.096;5.844;2023-04-30T06:27:50;6.28;;;2.40;;
49910;SDS011;35803;53.096;5.844;2023-04-30T06:30:18;5.53;;;2.40;;
49910;SDS011;35803;53.096;5.844;2023-04-30T06:32:44;4.15;;;2.72;;
49910;SDS011;35803;53.096;5.844;2023-04-30T06:35:09;7.80;;;2.50;;
49910;SDS011;35803;53.096;5.844;2023-04-30T06:37:35;4.03;;;2.33;;
49910;SDS011;35803;53.096;5.844;2023-04-30T06:40:04;5.03;;;2.47;;
49910;SDS011;35803;53.096;5.844;2023-04-30T06:42:31;3.65;;;2.30;;
49910;SDS011;35803;53.096;5.844;2023-04-30T06:45:02;5.95;;;2.72;;
49910;SDS011;35803;53.096;5.844;2023-04-30T06:47:29;6.80;;;2.60;;
49910;SDS011;35803;53.096;5.844;2023-04-30T06:49:59;9.20;;;2.70;;
49910;SDS011;35803;53.096;5.844;2023-04-30T06:52:25;3.78;;;2.58;;
49910;SDS011;35803;53.096;5.844;2023-04-30T06:54:50;5.70;;;2.40;;
49910;SDS011;35803;53.096;5.844;2023-04-30T06:57:16;3.28;;;2.58;;
49910;SDS011;35803;53.096;5.844;2023-04-30T06:59:44;6.90;;;2.47;;
49910;SDS011;35803;53.096;5.844;2023-04-30T07:02:10;2.75;;;2.00;;
49910;SDS011;35803;53.096;5.844;2023-04-30T07:04:35;2.42;;;2.10;;
49910;SDS011;35803;53.096;5.844;2023-04-30T07:07:01;5.35;;;1.98;;
49910;SDS011;35803;53.096;5.844;2023-04-30T07:09:29;4.65;;;2.20;;
49910;SDS011;35803;53.096;5.844;2023-04-30T07:11:56;6.55;;;2.13;;
49910;SDS011;35803;53.096;5.844;2023-04-30T07:14:22;2.90;;;1.73;;
49910;SDS011;35803;53.096;5.844;2023-04-30T07:16:48;3.65;;;1.70;;
49910;SDS011;35803;53.096;5.844;2023-04-30T07:19:14;4.45;;;2.25;;
49910;SDS011;35803;53.096;5.844;2023-04-30T07:21:40;5.47;;;2.17;;
49910;SDS011;35803;53.096;5.844;2023-04-30T07:24:05;4.50;;;2.53;;
49910;SDS011;35803;53.096;5.844;2023-04-30T07:26:31;5.47;;;2.28;;
49910;SDS011;35803;53.096;5.844;2023-04-30T07:28:56;6.82;;;2.10;;
49910;SDS011;35803;53.096;5.844;2023-04-30T07:31:22;4.82;;;2.33;;
49910;SDS011;35803;53.096;5.844;2023-04-30T07:33:48;3.88;;;2.03;;
49910;SDS011;35803;53.096;5.844;2023-04-30T07:36:14;3.90;;;1.90;;
49910;SDS011;35803;53.096;5.844;2023-04-30T07:38:40;5.25;;;2.00;;
49910;SDS011;35803;53.096;5.844;2023-04-30T07:41:06;6.40;;;2.42;;
49910;SDS011;35803;53.096;5.844;2023-04-30T07:43:36;3.47;;;2.47;;
49910;SDS011;35803;53.096;5.844;2023-04-30T07:46:02;3.72;;;2.05;;
49910;SDS011;35803;53.096;5.844;2023-04-30T07:48:28;5.38;;;2.08;;
49910;SDS011;35803;53.096;5.844;2023-04-30T07:50:54;4.82;;;2.40;;
49910;SDS011;35803;53.096;5.844;2023-04-30T07:53:21;3.88;;;1.85;;
49910;SDS011;35803;53.096;5.844;2023-04-30T07:55:47;4.35;;;1.88;;
49910;SDS011;35803;53.096;5.844;2023-04-30T07:58:12;3.25;;;1.75;;
49910;SDS011;35803;53.096;5.844;2023-04-30T08:00:38;5.70;;;2.20;;
49910;SDS011;35803;53.096;5.844;2023-04-30T08:03:04;5.22;;;2.05;;
49910;SDS011;35803;53.096;5.844;2023-04-30T08:05:29;6.22;;;2.00;;
49910;SDS011;35803;53.096;5.844;2023-04-30T08:07:55;6.90;;;2.15;;
49910;SDS011;35803;53.096;5.844;2023-04-30T08:10:20;2.65;;;1.58;;
49910;SDS011;35803;53.096;5.844;2023-04-30T08:12:46;7.45;;;2.25;;
49910;SDS011;35803;53.096;5.844;2023-04-30T08:15:11;2.95;;;2.03;;
49910;SDS011;35803;53.096;5.844;2023-04-30T08:17:37;5.22;;;1.92;;
49910;SDS011;35803;53.096;5.844;2023-04-30T08:20:03;2.33;;;1.85;;
49910;SDS011;35803;53.096;5.844;2023-04-30T08:22:29;5.57;;;2.00;;
49910;SDS011;35803;53.096;5.844;2023-04-30T08:24:54;3.17;;;1.63;;
49910;SDS011;35803;53.096;5.844;2023-04-30T08:27:20;4.30;;;2.15;;
49910;SDS011;35803;53.096;5.844;2023-04-30T08:29:46;2.30;;;1.70;;
49910;SDS011;35803;53.096;5.844;2023-04-30T08:32:12;2.03;;;1.77;;
49910;SDS011;35803;53.096;5.844;2023-04-30T08:34:40;7.63;;;2.20;;
49910;SDS011;35803;53.096;5.844;2023-04-30T08:37:07;2.80;;;1.90;;
49910;SDS011;35803;53.096;5.844;2023-04-30T08:39:35;3.97;;;1.80;;
49910;SDS011;35803;53.096;5.844;2023-04-30T08:42:01;2.15;;;1.67;;
49910;SDS011;35803;53.096;5.844;2023-04-30T08:44:28;5.03;;;1.40;;
49910;SDS011;35803;53.096;5.844;2023-04-30T08:46:54;4.70;;;1.80;;
49910;SDS011;35803;53.096;5.844;2023-04-30T08:49:22;3.28;;;1.63;;
49910;SDS011;35803;53.096;5.844;2023-04-30T08:51:48;1.92;;;1.40;;
49910;SDS011;35803;53.096;5.844;2023-04-30T08:54:13;2.75;;;1.40;;
49910;SDS011;35803;53.096;5.844;2023-04-30T08:56:40;3.58;;;1.70;;
49910;SDS011;35803;53.096;5.844;2023-04-30T08:59:05;4.93;;;2.00;;
49910;SDS011;35803;53.096;5.844;2023-04-30T09:01:33;3.72;;;1.90;;
49910;SDS011;35803;53.096;5.844;2023-04-30T09:03:59;2.17;;;1.58;;
49910;SDS011;35803;53.096;5.844;2023-04-30T09:06:25;3.17;;;1.85;;
49910;SDS011;35803;53.096;5.844;2023-04-30T09:08:51;4.60;;;1.83;;
49910;SDS011;35803;53.096;5.844;2023-04-30T09:13:57;4.35;;;2.03;;
49910;SDS011;35803;53.096;5.844;2023-04-30T09:16:25;4.45;;;2.13;;
49910;SDS011;35803;53.096;5.844;2023-04-30T09:18:51;4.70;;;1.98;;
49910;SDS011;35803;53.096;5.844;2023-04-30T09:21:29;4.22;;;2.15;;
49910;SDS011;35803;53.096;5.844;2023-04-30T09:24:01;1.92;;;1.67;;
49910;SDS011;35803;53.096;5.844;2023-04-30T09:26:32;5.00;;;2.17;;
49910;SDS011;35803;53.096;5.844;2023-04-30T09:28:59;4.28;;;2.20;;
49910;SDS011;35803;53.096;5.844;2023-04-30T09:31:25;2.70;;;1.92;;
49910;SDS011;35803;53.096;5.844;2023-04-30T09:33:51;4.07;;;1.98;;
49910;SDS011;35803;53.096;5.844;2023-04-30T09:36:20;3.25;;;2.10;;
49910;SDS011;35803;53.096;5.844;2023-04-30T09:38:45;3.80;;;1.77;;
49910;SDS011;35803;53.096;5.844;2023-04-30T09:41:21;3.28;;;1.85;;
49910;SDS011;35803;53.096;5.844;2023-04-30T09:43:48;2.00;;;1.58;;
49910;SDS011;35803;53.096;5.844;2023-04-30T09:46:14;4.35;;;1.88;;
49910;SDS011;35803;53.096;5.844;2023-04-30T09:48:42;4.90;;;1.85;;
49910;SDS011;35803;53.096;5.844;2023-04-30T09:51:09;2.60;;;1.52;;
49910;SDS011;35803;53.096;5.844;2023-04-30T09:53:38;3.85;;;1.65;;
49910;SDS011;35803;53.096;5.844;2023-04-30T09:56:06;7.75;;;1.98;;
49910;SDS011;35803;53.096;5.844;2023-04-30T09:58:35;5.13;;;1.75;;
49910;SDS011;35803;53.096;5.844;2023-04-30T10:01:05;3.70;;;1.83;;
49910;SDS011;35803;53.096;5.844;2023-04-30T10:03:32;3.78;;;1.60;;
49910;SDS011;35803;53.096;5.844;2023-04-30T10:05:58;2.83;;;1.60;;
49910;SDS011;35803;53.096;5.844;2023-04-30T10:08:28;2.42;;;1.33;;
49910;SDS011;35803;53.096;5.844;2023-04-30T10:11:05;2.00;;;1.42;;
49910;SDS011;35803;53.096;5.844;2023-04-30T10:13:33;4.22;;;1.70;;
49910;SDS011;35803;53.096;5.844;2023-04-30T10:16:07;2.40;;;1.58;;
49910;SDS011;35803;53.096;5.844;2023-04-30T10:18:38;2.28;;;1.70;;
49910;SDS011;35803;53.096;5.844;2023-04-30T10:21:06;3.70;;;1.92;;
49910;SDS011;35803;53.096;5.844;2023-04-30T10:23:39;5.53;;;1.35;;
49910;SDS011;35803;53.096;5.844;2023-04-30T10:26:09;3.20;;;1.50;;
49910;SDS011;35803;53.096;5.844;2023-04-30T10:28:36;4.32;;;1.65;;
49910;SDS011;35803;53.096;5.844;2023-04-30T10:31:02;2.63;;;1.40;;
49910;SDS011;35803;53.096;5.844;2023-04-30T10:33:34;3.63;;;1.60;;
49910;SDS011;35803;53.096;5.844;2023-04-30T10:38:29;4.35;;;1.55;;
49910;SDS011;35803;53.096;5.844;2023-04-30T10:40:57;4.07;;;1.85;;
49910;SDS011;35803;53.096;5.844;2023-04-30T10:43:24;1.85;;;1.65;;
49910;SDS011;35803;53.096;5.844;2023-04-30T10:45:50;1.92;;;1.42;;
49910;SDS011;35803;53.096;5.844;2023-04-30T10:48:15;2.83;;;1.80;;
49910;SDS011;35803;53.096;5.844;2023-04-30T10:50:49;4.03;;;1.63;;
49910;SDS011;35803;53.096;5.844;2023-04-30T10:53:17;7.20;;;1.80;;
49910;SDS011;35803;53.096;5.844;2023-04-30T10:55:47;4.57;;;1.60;;
49910;SDS011;35803;53.096;5.844;2023-04-30T10:58:22;3.78;;;1.85;;
49910;SDS011;35803;53.096;5.844;2023-04-30T11:00:58;3.75;;;1.90;;
49910;SDS011;35803;53.096;5.844;2023-04-30T11:03:39;4.78;;;1.50;;
49910;SDS011;35803;53.096;5.844;2023-04-30T11:06:07;3.17;;;1.27;;
49910;SDS011;35803;53.096;5.844;2023-04-30T11:08:34;4.32;;;1.73;;
49910;SDS011;35803;53.096;5.844;2023-04-30T11:11:00;3.10;;;1.50;;
49910;SDS011;35803;53.096;5.844;2023-04-30T11:13:26;2.22;;;1.58;;
49910;SDS011;35803;53.096;5.844;2023-04-30T11:15:52;1.73;;;1.33;;
49910;SDS011;35803;53.096;5.844;2023-04-30T11:18:18;2.75;;;1.83;;
49910;SDS011;35803;53.096;5.844;2023-04-30T11:20:49;2.10;;;1.70;;
49910;SDS011;35803;53.096;5.844;2023-04-30T11:23:16;2.97;;;1.50;;
49910;SDS011;35803;53.096;5.844;2023-04-30T11:25:45;2.08;;;1.55;;
49910;SDS011;35803;53.096;5.844;2023-04-30T11:28:16;2.28;;;1.50;;
49910;SDS011;35803;53.096;5.844;2023-04-30T11:30:49;2.80;;;1.38;;
49910;SDS011;35803;53.096;5.844;2023-04-30T11:33:18;3.17;;;1.50;;
49910;SDS011;35803;53.096;5.844;2023-04-30T11:35:44;2.85;;;1.63;;
49910;SDS011;35803;53.096;5.844;2023-04-30T11:38:13;2.08;;;1.33;;
49910;SDS011;35803;53.096;5.844;2023-04-30T11:40:40;3.42;;;1.60;;
49910;SDS011;35803;53.096;5.844;2023-04-30T11:43:06;1.80;;;1.30;;
49910;SDS011;35803;53.096;5.844;2023-04-30T11:45:32;2.47;;;1.40;;
49910;SDS011;35803;53.096;5.844;2023-04-30T11:47:59;2.60;;;1.50;;
49910;SDS011;35803;53.096;5.844;2023-04-30T11:50:25;3.95;;;1.50;;
49910;SDS011;35803;53.096;5.844;2023-04-30T11:52:56;2.60;;;1.40;;
49910;SDS011;35803;53.096;5.844;2023-04-30T11:55:26;3.88;;;1.58;;
49910;SDS011;35803;53.096;5.844;2023-04-30T11:57:53;3.80;;;1.48;;
49910;SDS011;35803;53.096;5.844;2023-04-30T12:00:23;3.40;;;1.33;;
49910;SDS011;35803;53.096;5.844;2023-04-30T12:02:51;2.45;;;1.25;;
49910;SDS011;35803;53.096;5.844;2023-04-30T12:05:18;1.75;;;1.20;;
49910;SDS011;35803;53.096;5.844;2023-04-30T12:07:54;1.95;;;1.30;;
49910;SDS011;35803;53.096;5.844;2023-04-30T12:10:31;2.10;;;1.00;;
49910;SDS011;35803;53.096;5.844;2023-04-30T12:12:57;1.77;;;1.10;;
49910;SDS011;35803;53.096;5.844;2023-04-30T12:15:23;1.38;;;1.08;;
49910;SDS011;35803;53.096;5.844;2023-04-30T12:17:59;1.92;;;1.48;;
49910;SDS011;35803;53.096;5.844;2023-04-30T12:20:25;2.57;;;1.27;;
49910;SDS011;35803;53.096;5.844;2023-04-30T12:22:52;1.70;;;1.13;;
49910;SDS011;35803;53.096;5.844;2023-04-30T12:25:18;2.10;;;1.25;;
49910;SDS011;35803;53.096;5.844;2023-04-30T12:27:50;3.95;;;1.10;;
49910;SDS011;35803;53.096;5.844;2023-04-30T12:30:20;2.20;;;1.20;;
49910;SDS011;35803;53.096;5.844;2023-04-30T12:32:49;4.53;;;1.20;;
49910;SDS011;35803;53.096;5.844;2023-04-30T12:35:19;1.77;;;1.10;;
49910;SDS011;35803;53.096;5.844;2023-04-30T12:37:47;3.60;;;1.48;;
49910;SDS011;35803;53.096;5.844;2023-04-30T12:40:16;1.83;;;1.00;;
49910;SDS011;35803;53.096;5.844;2023-04-30T12:42:43;2.28;;;1.30;;
49910;SDS011;35803;53.096;5.844;2023-04-30T12:45:11;2.67;;;1.40;;
49910;SDS011;35803;53.096;5.844;2023-04-30T12:47:38;1.63;;;0.90;;
49910;SDS011;35803;53.096;5.844;2023-04-30T12:50:08;2.03;;;1.20;;
49910;SDS011;35803;53.096;5.844;2023-04-30T12:52:35;3.20;;;1.10;;
49910;SDS011;35803;53.096;5.844;2023-04-30T12:55:13;2.67;;;1.10;;
49910;SDS011;35803;53.096;5.844;2023-04-30T12:57:39;1.02;;;0.80;;
49910;SDS011;35803;53.096;5.844;2023-04-30T13:00:05;1.30;;;1.20;;
49910;SDS011;35803;53.096;5.844;2023-04-30T13:02:32;1.38;;;1.20;;
49910;SDS011;35803;53.096;5.844;2023-04-30T13:04:58;2.13;;;1.10;;
49910;SDS011;35803;53.096;5.844;2023-04-30T13:07:23;1.23;;;1.13;;
49910;SDS011;35803;53.096;5.844;2023-04-30T13:09:49;1.20;;;1.10;;
49910;SDS011;35803;53.096;5.844;2023-04-30T13:12:15;1.27;;;1.10;;
49910;SDS011;35803;53.096;5.844;2023-04-30T13:14:43;2.63;;;1.25;;
49910;SDS011;35803;53.096;5.844;2023-04-30T13:17:09;1.20;;;1.10;;
49910;SDS011;35803;53.096;5.844;2023-04-30T13:19:36;1.00;;;0.90;;
49910;SDS011;35803;53.096;5.844;2023-04-30T13:22:02;2.75;;;1.25;;
49910;SDS011;35803;53.096;5.844;2023-04-30T13:24:27;2.13;;;1.05;;
49910;SDS011;35803;53.096;5.844;2023-04-30T13:26:55;2.28;;;1.35;;
49910;SDS011;35803;53.096;5.844;2023-04-30T13:29:21;2.78;;;1.10;;
49910;SDS011;35803;53.096;5.844;2023-04-30T13:31:47;1.83;;;0.98;;
49910;SDS011;35803;53.096;5.844;2023-04-30T13:34:14;1.45;;;0.80;;
49910;SDS011;35803;53.096;5.844;2023-04-30T13:36:40;1.63;;;0.90;;
49910;SDS011;35803;53.096;5.844;2023-04-30T13:39:05;2.50;;;0.88;;
49910;SDS011;35803;53.096;5.844;2023-04-30T13:41:31;1.52;;;0.82;;
49910;SDS011;35803;53.096;5.844;2023-04-30T13:43:57;1.35;;;1.10;;
49910;SDS011;35803;53.096;5.844;2023-04-30T13:46:24;1.00;;;0.90;;
49910;SDS011;35803;53.096;5.844;2023-04-30T13:48:50;0.98;;;0.80;;
49910;SDS011;35803;53.096;5.844;2023-04-30T13:51:17;1.52;;;0.90;;
49910;SDS011;35803;53.096;5.844;2023-04-30T13:53:43;1.30;;;1.00;;
49910;SDS011;35803;53.096;5.844;2023-04-30T13:56:09;0.95;;;0.90;;
49910;SDS011;35803;53.096;5.844;2023-04-30T13:58:35;0.80;;;0.73;;
49910;SDS011;35803;53.096;5.844;2023-04-30T14:01:06;0.80;;;0.63;;
49910;SDS011;35803;53.096;5.844;2023-04-30T14:03:33;1.85;;;0.88;;
49910;SDS011;35803;53.096;5.844;2023-04-30T14:05:58;1.20;;;0.88;;
49910;SDS011;35803;53.096;5.844;2023-04-30T14:08:26;1.95;;;0.85;;
49910;SDS011;35803;53.096;5.844;2023-04-30T14:10:51;2.25;;;0.90;;
49910;SDS011;35803;53.096;5.844;2023-04-30T14:13:17;0.80;;;0.80;;
49910;SDS011;35803;53.096;5.844;2023-04-30T14:15:42;1.73;;;0.88;;
49910;SDS011;35803;53.096;5.844;2023-04-30T14:18:08;0.95;;;0.95;;
49910;SDS011;35803;53.096;5.844;2023-04-30T14:20:33;1.13;;;1.02;;
49910;SDS011;35803;53.096;5.844;2023-04-30T14:22:59;2.85;;;1.27;;
49910;SDS011;35803;53.096;5.844;2023-04-30T14:25:28;1.25;;;1.10;;
49910;SDS011;35803;53.096;5.844;2023-04-30T14:27:53;1.25;;;0.90;;
49910;SDS011;35803;53.096;5.844;2023-04-30T14:30:22;1.35;;;1.10;;
49910;SDS011;35803;53.096;5.844;2023-04-30T14:32:48;1.25;;;0.80;;
49910;SDS011;35803;53.096;5.844;2023-04-30T14:35:13;1.75;;;1.00;;
49910;SDS011;35803;53.096;5.844;2023-04-30T14:37:39;1.10;;;1.00;;
49910;SDS011;35803;53.096;5.844;2023-04-30T14:40:04;1.30;;;0.90;;
49910;SDS011;35803;53.096;5.844;2023-04-30T14:42:32;3.00;;;1.00;;
49910;SDS011;35803;53.096;5.844;2023-04-30T14:44:57;1.63;;;0.88;;
49910;SDS011;35803;53.096;5.844;2023-04-30T14:47:23;2.42;;;0.90;;
49910;SDS011;35803;53.096;5.844;2023-04-30T14:49:51;2.58;;;0.82;;
49910;SDS011;35803;53.096;5.844;2023-04-30T14:52:17;2.17;;;0.95;;
49910;SDS011;35803;53.096;5.844;2023-04-30T14:54:44;0.70;;;0.70;;
49910;SDS011;35803;53.096;5.844;2023-04-30T14:57:09;1.52;;;0.80;;
49910;SDS011;35803;53.096;5.844;2023-04-30T14:59:35;0.90;;;0.60;;
49910;SDS011;35803;53.096;5.844;2023-04-30T15:02:02;1.88;;;0.80;;
49910;SDS011;35803;53.096;5.844;2023-04-30T15:04:28;0.95;;;0.70;;
49910;SDS011;35803;53.096;5.844;2023-04-30T15:06:54;0.70;;;0.70;;
49910;SDS011;35803;53.096;5.844;2023-04-30T15:09:19;2.08;;;0.68;;